Flight Track Log - Related Links

Times and Time Zones

All times are in EDT time to prevent confusion due to time zone crossing. See the N15RH flight status page for this flight to view local times or setup timezone preferences in your user account.

Time Position Orientation Groundspeed Altitude Reporting Facility
EDT Latitude Longitude Course Direction KTS MPH feet Rate Location/Type
Sun 10:49:05 AM 39.6000 -86.7667 159° South 165 190 2,300  Level Indianapolis TRACON
Sun 10:50:05 AM 39.5667 -86.7500 159° South 166 191 2,500 103 Climbing Indianapolis TRACON
Sun 10:51:02 AM 39.5250 -86.7375 167° South 170 196 2,500 407 Level Indianapolis Center
Sun 10:52:03 AM 39.4778 -86.7217 165° South 176 203 3,300 732 Climbing Indianapolis Center
Sun 10:53:05 AM 39.4358 -86.6858 147° Southeast 156 180 4,000 581 Climbing Indianapolis Center
Sun 10:54:07 AM 39.4000 -86.6547 146° Southeast 156 180 4,500 537 Climbing Indianapolis Center
Sun 10:55:08 AM 39.3644 -86.6244 147° Southeast 156 180 5,100 488 Climbing Indianapolis Center
Sun 10:56:10 AM 39.3269 -86.5933 147° Southeast 156 180 5,500 439 Climbing Indianapolis Center
Sun 10:57:11 AM 39.2883 -86.5600 146° Southeast 162 186 6,000 390 Climbing Indianapolis Center
Sun 10:58:13 AM 39.2489 -86.5267 147° Southeast 167 192 6,300 390 Climbing Indianapolis Center
Sun 10:59:14 AM 39.2092 -86.4928 147° Southeast 169 194 6,800 341 Climbing Indianapolis Center
Sun 11:00:16 AM 39.1606 -86.4528 147° Southeast 170 196 7,000 98 Climbing Indianapolis Center
Sun 11:01:17 AM 39.1150 -86.4147 147° Southeast 186 214 7,000  Level Indianapolis Center
Sun 11:02:20 AM 39.0686 -86.3758 147° Southeast 194 223 7,000  Level Indianapolis Center
Sun 11:03:21 AM 39.0219 -86.3367 147° Southeast 197 227 7,000  Level Indianapolis Center
Sun 11:04:22 AM 38.9761 -86.2989 147° Southeast 197 227 7,000  Level Indianapolis Center
Sun 11:05:24 AM 38.9311 -86.2611 147° Southeast 197 227 7,000  Level Indianapolis Center
Sun 11:06:25 AM 38.8781 -86.2156 146° Southeast 197 227 7,000  Level Indianapolis Center
Sun 11:07:27 AM 38.8328 -86.1786 148° Southeast 197 227 7,000  Level Indianapolis Center
Sun 11:08:28 AM 38.7883 -86.1408 146° Southeast 196 226 7,000 16 Level Indianapolis Center
Sun 11:13:47 AM 38.5429 -85.9373 147° Southeast 191 220 7,100 17 Climbing FlightAware ADS-B
Sun 11:14:13 AM 38.5239 -85.9216 147° Southeast 191 220 7,100  Level FlightAware ADS-B
Sun 11:14:36 AM 38.5072 -85.9078 147° Southeast 189 217 7,100  Level FlightAware ADS-B
Sun 11:15:34 AM 38.4642 -85.8724 147° Southeast 184 212 7,100  Level FlightAware ADS-B
Sun 11:16:01 AM 38.4458 -85.8572 147° Southeast 185 213 7,100  Level FlightAware ADS-B
Sun 11:16:26 AM 38.4288 -85.8433 147° Southeast 184 212 7,100  Level FlightAware ADS-B
Sun 11:16:46 AM 38.4131 -85.8304 147° Southeast 182 209 7,100  Level FlightAware ADS-B
Sun 11:17:02 AM 38.4023 -85.8215 147° Southeast 182 209 7,100  Level FlightAware ADS-B
Sun 11:17:27 AM 38.3855 -85.8078 147° Southeast 182 209 7,100  Level FlightAware ADS-B
Sun 11:17:51 AM 38.3668 -85.7924 147° Southeast 183 211 7,100  Level FlightAware ADS-B
Sun 11:18:13 AM 38.3570 -85.7845 147° Southeast 182 209 7,100  Level FlightAware ADS-B
Sun 11:18:34 AM 38.3368 -85.7678 147° Southeast 181 208 7,100  Level FlightAware ADS-B
Sun 11:18:50 AM 38.3252 -85.7583 147° Southeast 182 209 7,100  Level FlightAware ADS-B
Sun 11:19:14 AM 38.3083 -85.7445 147° Southeast 182 209 7,100  Level FlightAware ADS-B
Sun 11:19:39 AM 38.2901 -85.7297 147° Southeast 181 208 7,100  Level FlightAware ADS-B
Sun 11:20:02 AM 38.2745 -85.7168 147° Southeast 181 208 7,100  Level FlightAware ADS-B
Sun 11:20:39 AM 38.2499 -85.6967 147° Southeast 185 213 7,100  Level FlightAware ADS-B
Sun 11:21:17 AM 38.2226 -85.6744 147° Southeast 182 209 7,100  Level FlightAware ADS-B
Sun 11:22:22 AM 38.1826 -85.6418 147° Southeast 183 211 7,100  Level FlightAware ADS-B
Sun 11:23:23 AM 38.1304 -85.5993 148° Southeast 186 214 7,100  Level FlightAware ADS-B
Sun 11:24:23 AM 38.0865 -85.5728 170° South 177 204 7,100  Level FlightAware ADS-B
Sun 11:25:28 AM 38.0354 -85.5588 168° South 176 203 7,100  Level FlightAware ADS-B
Sun 11:26:39 AM 37.9758 -85.5422 168° South 177 204 7,100  Level FlightAware ADS-B
Sun 11:27:54 AM 37.9150 -85.5255 168° South 182 209 7,100  Level FlightAware ADS-B
Sun 11:28:55 AM 37.8647 -85.5117 168° South 185 213 7,100  Level FlightAware ADS-B
Sun 11:29:55 AM 37.8138 -85.4977 168° South 186 214 7,100  Level FlightAware ADS-B
Sun 11:30:55 AM 37.7656 -85.4845 168° South 180 207 7,100  Level FlightAware ADS-B
Sun 11:31:54 AM 37.7177 -85.4715 168° South 179 206 7,100  Level FlightAware ADS-B
Sun 11:32:54 AM 37.6680 -85.4579 168° South 175 201 7,100  Level FlightAware ADS-B
Sun 11:33:55 AM 37.6204 -85.4449 168° South 172 198 7,100  Level FlightAware ADS-B
Sun 11:35:56 AM 37.5282 -85.4198 168° South 175 201 7,100  Level FlightAware ADS-B
Sun 11:36:55 AM 37.4828 -85.4075 168° South 174 200 7,100 -85 Level FlightAware ADS-B
Sun 11:38:17 AM 37.4211 -85.3894 168° South 173 199 6,900 -83 Descending Indianapolis Center
Sun 11:39:19 AM 37.3728 -85.3767 168° South 174 200 6,900  Level Indianapolis Center
Sun 11:40:21 AM 37.3250 -85.3639 168° South 174 200 6,900  Level Indianapolis Center
Sun 11:41:22 AM 37.2686 -85.3483 168° South 175 201 6,900  Level Indianapolis Center
Sun 11:42:24 AM 37.2197 -85.3358 168° South 175 201 6,900  Level Indianapolis Center
Sun 11:43:26 AM 37.1719 -85.3225 167° South 176 203 6,900  Level Indianapolis Center
Sun 11:44:28 AM 37.1236 -85.3103 169° South 176 203 6,900  Level Indianapolis Center
Sun 11:45:29 AM 37.0750 -85.2972 168° South 176 203 6,900  Level Indianapolis Center
Sun 11:46:31 AM 37.0244 -85.2842 168° South 177 204 6,900  Level Indianapolis Center
Sun 11:47:33 AM 36.9764 -85.2711 168° South 177 204 6,900  Level Indianapolis Center
Sun 11:48:35 AM 36.9167 -85.2561 169° South 179 206 6,900  Level Indianapolis Center
Sun 11:49:36 AM 36.8656 -85.2411 167° South 183 211 6,900  Level Indianapolis Center
Sun 11:50:38 AM 36.8156 -85.2281 168° South 183 211 6,900 48 Level Indianapolis Center
Sun 11:51:40 AM 36.7656 -85.2147 168° South 183 211 7,000 48 Climbing Indianapolis Center
Sun 11:52:42 AM 36.7167 -85.2017 168° South 183 211 7,000  Level Indianapolis Center
Sun 11:53:43 AM 36.6692 -85.1894 168° South 180 207 7,000  Level Indianapolis Center
Sun 11:54:45 AM 36.6225 -85.1761 167° South 176 203 7,000  Level Indianapolis Center
Sun 11:55:47 AM 36.5644 -85.1603 168° South 176 203 7,000  Level Indianapolis Center
Sun 11:56:49 AM 36.5167 -85.1500 170° South 176 203 7,000  Level Indianapolis Center
Sun 11:57:50 AM 36.4683 -85.1389 170° South 176 203 7,000  Level Indianapolis Center
Sun 11:58:52 AM 36.4206 -85.1281 170° South 176 203 7,000  Level Indianapolis Center
Sun 11:59:54 AM 36.3742 -85.1164 169° South 175 201 7,000  Level Indianapolis Center
Sun 12:00:56 PM 36.3261 -85.1058 170° South 175 201 7,000  Level Indianapolis Center
Sun 12:01:57 PM 36.2775 -85.0933 168° South 175 201 7,000  Level Indianapolis Center
Sun 12:02:59 PM 36.2300 -85.0839 171° South 175 201 7,000  Level Indianapolis Center
Sun 12:04:01 PM 36.1736 -85.0697 169° South 175 201 7,000 49 Level Indianapolis Center
Sun 12:05:02 PM 36.1269 -85.0589 169° South 174 200 7,100  Climbing Indianapolis Center
Sun 12:06:04 PM 36.0819 -85.0478 169° South 169 194 7,000 -48 Descending Indianapolis Center
Sun 12:07:06 PM 36.0369 -85.0386 171° South 168 193 7,000 -194 Level Indianapolis Center
Sun 12:08:08 PM 35.9900 -85.0450 186° South 169 194 6,600 -341 Descending Indianapolis Center
Sun 12:09:09 PM 35.9378 -85.0503 185° South 175 201 6,300 -244 Descending Indianapolis Center
Sun 12:10:11 PM 35.8872 -85.0556 185° South 176 203 6,100 -122 Descending Indianapolis Center
Sun 12:10:47 PM 35.8539 -85.0583 184° South 177 204 6,100  Level Atlanta Center
Sun 12:11:47 PM 35.8078 -85.0656 187° South 177 204 6,100  Level Atlanta Center
Sun 12:12:47 PM 35.7639 -85.0700 185° South 177 204 6,100  Level Atlanta Center
Sun 12:13:47 PM 35.7181 -85.0747 185° South 177 204 6,100  Level Atlanta Center
Sun 12:14:47 PM 35.6700 -85.0792 184° South 177 204 6,100 -50 Level Atlanta Center
Sun 12:15:47 PM 35.6242 -85.0836 185° South 177 204 6,000  Descending Atlanta Center
Sun 12:16:47 PM 35.5781 -85.0908 187° South 177 204 6,100 50 Climbing Atlanta Center
Sun 12:17:47 PM 35.5322 -85.0953 185° South 177 204 6,100  Level Atlanta Center
Sun 12:18:47 PM 35.4864 -85.0997 185° South 177 204 6,100 -50 Level Atlanta Center
Sun 12:19:47 PM 35.4403 -85.1042 184° South 177 204 6,000 -50 Descending Atlanta Center
Sun 12:20:47 PM 35.3944 -85.1089 185° South 177 204 6,000 50 Level Atlanta Center
Sun 12:21:47 PM 35.3464 -85.1133 184° South 177 204 6,100  Climbing Atlanta Center
Sun 12:22:47 PM 35.3006 -85.1203 187° South 177 204 6,000 -79 Descending Atlanta Center
Sun 12:35:47 PM 34.6806 -85.1453 148° Southeast 164 189 5,000 -71 Descending Atlanta Center
Sun 12:36:00 PM 34.6398 -85.1371 178° South  Level FlightAware Approximate
Sun 12:36:47 PM 34.6306 -85.1394 175° South 164 189 5,000  Level Atlanta Center
Sun 12:37:00 PM 34.5898 -85.1350 178° South  Level FlightAware Approximate
Sun 12:37:47 PM 34.5886 -85.1364 177° South 164 189 5,000  Level Atlanta Center
Sun 12:38:00 PM 34.5421 -85.1255 141° Southeast  Level FlightAware Approximate
Sun 12:38:47 PM 34.5386 -85.1331 177° South 164 189 5,000  Level Atlanta Center
Sun 12:39:00 PM 34.5005 -85.0919 148° Southeast  Level FlightAware Approximate
Sun 12:39:47 PM 34.4928 -85.1325 179° South 164 189 5,000  Level Atlanta Center
Sun 12:40:00 PM 34.4580 -85.0599 148° Southeast  Level FlightAware Approximate
Sun 12:40:48 PM 34.4822 -85.1325 180° South 164 189 5,000  Level Atlanta Center
Sun 12:41:47 PM 34.4061 -85.0181 129° Southeast 176 203 5,000  Level Atlanta Center
Sun 12:42:47 PM 34.3625 -84.9875 150° Southeast 181 208 5,000  Level Atlanta Center
Sun 12:43:47 PM 34.3169 -84.9542 149° Southeast 186 214 5,000  Level Atlanta Center
Sun 12:44:47 PM 34.2733 -84.9211 148° Southeast 186 214 5,000  Level Atlanta Center
Sun 12:45:47 PM 34.2317 -84.8881 147° Southeast 186 214 5,000  Level Atlanta Center
Sun 12:46:47 PM 34.1861 -84.8575 151° Southeast 186 214 5,000 -50 Level Atlanta Center
Sun 12:47:47 PM 34.1403 -84.8219 147° Southeast 186 214 4,900 -250 Descending Atlanta Center
Sun 12:48:47 PM 34.0967 -84.7889 148° Southeast 181 208 4,500 -400 Descending Atlanta Center
Sun 12:49:47 PM 34.0531 -84.7558 148° Southeast 181 208 4,100 -250 Descending Atlanta Center
Sun 12:50:47 PM 34.0114 -84.7231 147° Southeast 181 208 4,000 -73 Descending Atlanta Center
Sun 12:52:32 PM 33.9500 -84.6667 143° Southeast 174 200 3,900 -246 Descending Atlanta TRACON
Sun 12:53:38 PM 33.9000 -84.6333 151° Southeast 154 177 3,300 -500 Descending Atlanta TRACON
Sun 12:54:32 PM 33.8667 -84.6167 157° South 170 196 2,900 -474 Descending Atlanta TRACON
Sun 12:55:32 PM 33.8333 -84.5667 129° Southeast 175 201 2,400 -550 Descending Atlanta TRACON
Sun 12:56:32 PM 33.8000 -84.5333 140° Southeast 134 154 1,800 15,300 Descending Atlanta TRACON
Sun 12:57:32 PM 33.8000 -84.5000 90° East 121 139 33,000 31,200 Climbing Atlanta TRACON
Sun 01:00:00 PM 33.7791 -84.5214 173° South  Level Estimated
Sun 01:07:00 PM 33.7791 -84.5214 337° Northwest  Level Estimated

Login

Don't have an account? Register now (free) for customized features, flight alerts, and more!